MOL Explorer — 3EKT8 — position and weather

sailwx.info

Track history (hours):
 
Tides and Currents Weather Stations Pressure Air Temp Water Temp Dewpoint Dewpoint Depression Visibility Wind Speed Wind Dir Waves Ship Positions

MOL Explorer

Last reported at 2016-Feb-06 11:26 UTC. Time now 2016-Feb-06 11:36 UTC.
Position N 33°46' W 118°16'.

Length 293 m; draft 12.1 m.

Type: Ship (hazmat cat A). MMSI: 372827000.

Date/timePositionNaut miles runAvg speedWind from/ knotsBaromVisibWave heightAir tempDewpointWater temp
2016-Feb-06 11:26N 33°46' W 118°16'0 0.0
2016-Feb-06 10:32N 33°46' W 118°16'0 0.0
2016-Feb-06 09:32N 33°46' W 118°16'0 0.0
2016-Feb-06 08:32N 33°46' W 118°16'0 0.0
2016-Feb-06 07:26N 33°46' W 118°16'0 0.0
2016-Feb-06 06:32N 33°46' W 118°16'0 0.0
2016-Feb-06 05:32N 33°46' W 118°16'0 0.0
2016-Feb-06 04:32N 33°46' W 118°16'0 0.0
2016-Feb-06 03:32N 33°46' W 118°16'0 0.0
2016-Feb-06 02:32N 33°46' W 118°16'0 0.0
2016-Feb-06 00:29N 33°46' W 118°16'0 0.0
2016-Feb-05 23:29N 33°46' W 118°16'0 0.0
2016-Feb-05 22:26N 33°46' W 118°16'0 0.0
2016-Feb-05 21:29N 33°46' W 118°16'0 0.0
2016-Feb-05 20:26N 33°46' W 118°16'0 0.0
2016-Feb-05 19:32N 33°46' W 118°16'0 0.0
2016-Feb-05 18:29N 33°46' W 118°16'0 0.0
2016-Feb-05 17:26N 33°46' W 118°16'0 0.0
2016-Feb-05 16:29N 33°46' W 118°16'0 0.0
2016-Feb-05 15:20N 33°46' W 118°16'0 0.0
2016-Feb-05 14:32N 33°46' W 118°16'0 0.0
2016-Feb-05 13:32N 33°46' W 118°16'0 0.0
2016-Feb-05 12:32N 33°46' W 118°16'0 0.0
2016-Feb-05 11:32N 33°46' W 118°16'0 0.0
2016-Feb-05 10:32N 33°46' W 118°16'0 0.0
2016-Feb-05 09:32N 33°46' W 118°16'0 0.0
2016-Feb-05 08:32N 33°46' W 118°16'0 0.0
2016-Feb-05 07:32N 33°46' W 118°16'0 0.0
2016-Feb-05 06:32N 33°46' W 118°16'0 0.0
2016-Feb-05 05:32N 33°46' W 118°16'0 0.0
2016-Feb-05 04:32N 33°46' W 118°16'0 0.0
2016-Feb-05 03:32N 33°46' W 118°16'0 0.0
2016-Feb-05 02:32N 33°46' W 118°16'0 0.0
2016-Feb-05 01:32N 33°46' W 118°16'0 0.0
2016-Feb-05 00:32N 33°46' W 118°16'0 0.0
2016-Feb-04 23:32N 33°46' W 118°16'0 0.0
2016-Feb-04 22:32N 33°46' W 118°16'0 0.0
2016-Feb-04 21:32N 33°46' W 118°16'0 0.0
2016-Feb-04 20:32N 33°46' W 118°16'0 0.0
2016-Feb-04 19:26N 33°46' W 118°16'0 0.0
2016-Feb-04 18:05N 33°46' W 118°16'0 0.0
2016-Feb-04 17:29N 33°46' W 118°16'0 0.0
2016-Feb-04 15:26N 33°46' W 118°16'0 0.0
2016-Feb-04 14:17N 33°46' W 118°16'1 1.3
2016-Feb-04 13:33N 33°45' W 118°17'7 6.9
2016-Feb-04 12:33N 33°38' W 118°14'7 6.8
2016-Feb-04 11:33N 33°37' W 118°22'9 9.2
2016-Feb-04 10:33N 33°41' W 118°32'9 9.5
2016-Feb-04 09:34N 33°46' W 118°42'1411.1
2016-Feb-04 08:16N 33°53' W 118°57'7910.1
2016-Feb-04 00:31N 34°18' W 120°27'9 9.4
2016-Feb-03 23:33N 34°21' W 120°37'1614.6
2016-Feb-03 22:30N 34°25' W 120°55'  
Track history (hours):
 
Tides and Currents Weather Stations Pressure Air Temp Water Temp Dewpoint Dewpoint Depression Visibility Wind Speed Wind Dir Waves Ship Positions

MOL Explorer

Last reported at 2016-Feb-06 11:26 UTC. Time now 2016-Feb-06 11:36 UTC.
Position N 33°46' W 118°16'.

Length 293 m; draft 12.1 m.

Type: Ship (hazmat cat A). MMSI: 372827000.

Date/timePositionNaut miles runAvg speedWind from/ knotsBaromVisibWave heightAir tempDewpointWater temp
2016-Feb-06 11:26N 33°46' W 118°16'0 0.0
2016-Feb-06 10:32N 33°46' W 118°16'0 0.0
2016-Feb-06 09:32N 33°46' W 118°16'0 0.0
2016-Feb-06 08:32N 33°46' W 118°16'0 0.0
2016-Feb-06 07:26N 33°46' W 118°16'0 0.0
2016-Feb-06 06:32N 33°46' W 118°16'0 0.0
2016-Feb-06 05:32N 33°46' W 118°16'0 0.0
2016-Feb-06 04:32N 33°46' W 118°16'0 0.0
2016-Feb-06 03:32N 33°46' W 118°16'0 0.0
2016-Feb-06 02:32N 33°46' W 118°16'0 0.0
2016-Feb-06 00:29N 33°46' W 118°16'0 0.0
2016-Feb-05 23:29N 33°46' W 118°16'0 0.0
2016-Feb-05 22:26N 33°46' W 118°16'0 0.0
2016-Feb-05 21:29N 33°46' W 118°16'0 0.0
2016-Feb-05 20:26N 33°46' W 118°16'0 0.0
2016-Feb-05 19:32N 33°46' W 118°16'0 0.0
2016-Feb-05 18:29N 33°46' W 118°16'0 0.0
2016-Feb-05 17:26N 33°46' W 118°16'0 0.0
2016-Feb-05 16:29N 33°46' W 118°16'0 0.0
2016-Feb-05 15:20N 33°46' W 118°16'0 0.0
2016-Feb-05 14:32N 33°46' W 118°16'0 0.0
2016-Feb-05 13:32N 33°46' W 118°16'0 0.0
2016-Feb-05 12:32N 33°46' W 118°16'0 0.0
2016-Feb-05 11:32N 33°46' W 118°16'0 0.0
2016-Feb-05 10:32N 33°46' W 118°16'0 0.0
2016-Feb-05 09:32N 33°46' W 118°16'0 0.0
2016-Feb-05 08:32N 33°46' W 118°16'0 0.0
2016-Feb-05 07:32N 33°46' W 118°16'0 0.0
2016-Feb-05 06:32N 33°46' W 118°16'0 0.0
2016-Feb-05 05:32N 33°46' W 118°16'0 0.0
2016-Feb-05 04:32N 33°46' W 118°16'0 0.0
2016-Feb-05 03:32N 33°46' W 118°16'0 0.0
2016-Feb-05 02:32N 33°46' W 118°16'0 0.0
2016-Feb-05 01:32N 33°46' W 118°16'0 0.0
2016-Feb-05 00:32N 33°46' W 118°16'0 0.0
2016-Feb-04 23:32N 33°46' W 118°16'0 0.0
2016-Feb-04 22:32N 33°46' W 118°16'0 0.0
2016-Feb-04 21:32N 33°46' W 118°16'0 0.0
2016-Feb-04 20:32N 33°46' W 118°16'0 0.0
2016-Feb-04 19:26N 33°46' W 118°16'0 0.0
2016-Feb-04 18:05N 33°46' W 118°16'0 0.0
2016-Feb-04 17:29N 33°46' W 118°16'0 0.0
2016-Feb-04 15:26N 33°46' W 118°16'0 0.0
2016-Feb-04 14:17N 33°46' W 118°16'1 1.3
2016-Feb-04 13:33N 33°45' W 118°17'7 6.9
2016-Feb-04 12:33N 33°38' W 118°14'7 6.8
2016-Feb-04 11:33N 33°37' W 118°22'9 9.2
2016-Feb-04 10:33N 33°41' W 118°32'9 9.5
2016-Feb-04 09:34N 33°46' W 118°42'1411.1
2016-Feb-04 08:16N 33°53' W 118°57'7910.1
2016-Feb-04 00:31N 34°18' W 120°27'9 9.4
2016-Feb-03 23:33N 34°21' W 120°37'1614.6
2016-Feb-03 22:30N 34°25' W 120°55'  

Dump ship's entire track history